Terminal Aerodrome Forecast
Issued by NWS

Home | Current Version | Previous Version | Text Only | Print | Product List | Glossary On
Versions: 1 2 3 4 5 6 7 8 9 10 11 12 13
679
FTPA31 PHFO 061120
TAFHKO
TAF
PHKO 061120Z 0612/0712 VRB05KT P6SM SCT020 SCT050
     FM062000 27010KT P6SM SCT050
     FM070000 29012G19KT P6SM BKN050
     FM070600 VRB06G13KT P6SM SCT025 BKN045
      AMD NOT SKED=

USA.gov is the U.S. government's official web portal to all federal, state and local government web resources and services.